Time;durP1;ratioP1;P1;durP2;ratioP2;P2;SDS_P1;SDS_P2;PMS_P1;PMS_P2;Temp;Humidity;BMP_temperature;BMP_pressure;BME280_temperature;BME280_humidity;BME280_pressure;Samples;Min_cycle;Max_cycle;Signal;HPM_P1;HPM_P2
2023/10/16 00:01:20;;;;;;;2.17;1.20;;;;;;;17.22;47.64;100549.81;5113602;28;20410;-64
2023/10/16 00:03:49;;;;;;;2.17;0.93;;;;;;;17.19;47.55;100547.41;5113639;28;20052;-64
2023/10/16 00:06:18;;;;;;;3.00;1.20;;;;;;;17.16;47.74;100541.25;5113994;28;20075;-64
2023/10/16 00:08:53;;;;;;;2.20;0.88;;;;;;;17.15;47.52;100555.72;5113937;28;20089;-64
2023/10/16 00:11:24;;;;;;;1.85;0.95;;;;;;;17.13;47.74;100563.06;5113714;28;20135;-63
2023/10/16 00:13:56;;;;;;;3.58;1.17;;;;;;;17.12;47.53;100560.50;5113652;28;20108;-64
2023/10/16 00:16:28;;;;;;;3.00;1.00;;;;;;;17.11;47.53;100578.53;5113592;28;20374;-64
2023/10/16 00:19:00;;;;;;;3.83;1.20;;;;;;;17.10;47.49;100579.50;5113639;28;20046;-64
2023/10/16 00:21:30;;;;;;;2.60;0.90;;;;;;;17.09;47.50;100585.03;5113589;28;20508;-64
2023/10/16 00:23:59;;;;;;;2.15;1.10;;;;;;;17.07;47.49;100585.13;5113437;28;20402;-64
2023/10/16 00:26:30;;;;;;;1.80;0.90;;;;;;;17.06;47.57;100577.19;5113041;28;20047;-64
2023/10/16 00:29:16;;;;;;;1.90;1.08;;;;;;;17.05;47.44;100594.34;5113217;28;20052;-64
2023/10/16 00:31:51;;;;;;;1.88;0.98;;;;;;;17.04;47.40;100601.56;5113391;28;20056;-64
2023/10/16 00:34:25;;;;;;;2.53;1.10;;;;;;;17.02;47.30;100597.28;5113281;28;20091;-64
2023/10/16 00:36:54;;;;;;;1.73;0.93;;;;;;;17.02;47.38;100598.16;5113088;28;20051;-64
2023/10/16 00:39:28;;;;;;;2.05;1.00;;;;;;;17.01;47.53;100593.75;5113417;28;20382;-64
2023/10/16 00:41:58;;;;;;;2.60;1.00;;;;;;;17.00;47.50;100592.03;5113082;28;20147;-64
2023/10/16 00:44:33;;;;;;;2.20;0.90;;;;;;;16.99;47.38;100593.00;5113228;28;20039;-64
2023/10/16 00:47:05;;;;;;;2.30;0.95;;;;;;;16.99;47.58;100592.16;5113111;28;20077;-64
2023/10/16 00:49:34;;;;;;;2.42;0.90;;;;;;;16.96;47.59;100593.25;5112940;28;20142;-64
2023/10/16 00:52:04;;;;;;;2.58;1.00;;;;;;;16.97;47.33;100597.66;5113299;28;20408;-64
2023/10/16 00:54:39;;;;;;;1.77;0.82;;;;;;;16.96;47.41;100600.47;5113200;28;20054;-63
2023/10/16 00:57:11;;;;;;;1.83;0.80;;;;;;;16.95;47.38;100596.91;5112550;28;20503;-64
2023/10/16 00:59:41;;;;;;;2.55;1.10;;;;;;;16.95;47.42;100593.38;5112733;28;20534;-63
2023/10/16 01:02:14;;;;;;;2.67;0.90;;;;;;;16.94;47.35;100589.81;5113017;28;20054;-63
2023/10/16 01:04:44;;;;;;;3.83;1.13;;;;;;;16.92;47.25;100586.41;5112816;28;20412;-63
2023/10/16 01:07:14;;;;;;;2.50;0.90;;;;;;;16.92;47.37;100581.00;5112757;28;20051;-63
2023/10/16 01:09:46;;;;;;;3.13;1.30;;;;;;;16.91;47.29;100582.00;5112633;28;20051;-63
2023/10/16 01:12:16;;;;;;;2.30;0.95;;;;;;;16.90;47.39;100577.59;5112499;28;20485;-63
2023/10/16 01:14:44;;;;;;;2.20;1.10;;;;;;;16.91;47.56;100579.31;5112844;28;20048;-63
2023/10/16 01:17:14;;;;;;;1.75;0.90;;;;;;;16.91;47.70;100589.22;5112715;28;20039;-62
2023/10/16 01:19:44;;;;;;;2.42;0.90;;;;;;;16.89;47.64;100586.66;5112541;28;20050;-63
2023/10/16 01:22:15;;;;;;;1.60;1.00;;;;;;;16.90;47.47;100596.44;5112577;28;20048;-63
2023/10/16 01:24:45;;;;;;;1.73;1.00;;;;;;;16.90;47.63;100588.38;5112310;28;20044;-64
2023/10/16 01:27:27;;;;;;;1.65;0.95;;;;;;;16.90;47.45;100603.69;5112313;28;20048;-64
2023/10/16 01:29:59;;;;;;;2.22;1.10;;;;;;;16.90;47.39;100614.47;5112459;28;20054;-64
2023/10/16 01:32:31;;;;;;;2.33;1.30;;;;;;;16.89;47.60;100605.53;5112588;28;20412;-64
2023/10/16 01:35:00;;;;;;;2.47;1.30;;;;;;;16.89;47.61;100613.59;5112280;28;20055;-64
2023/10/16 01:37:30;;;;;;;2.05;0.98;;;;;;;16.87;47.51;100616.41;5112288;28;20043;-63
2023/10/16 01:40:17;;;;;;;1.85;0.95;;;;;;;16.86;47.66;100619.22;5112206;28;20132;-63
2023/10/16 01:42:45;;;;;;;1.88;0.80;;;;;;;16.86;47.50;100627.31;5112042;28;20059;-64
2023/10/16 01:45:14;;;;;;;1.42;0.68;;;;;;;16.85;47.48;100628.28;5112150;28;20496;-63
2023/10/16 01:47:43;;;;;;;1.33;0.73;;;;;;;16.84;47.61;100626.56;5112130;28;20044;-63
2023/10/16 01:50:20;;;;;;;2.38;1.00;;;;;;;16.83;47.60;100628.41;5111930;28;20083;-64
2023/10/16 01:52:50;;;;;;;1.67;0.90;;;;;;;16.83;47.50;100619.47;5112312;28;20144;-63
2023/10/16 01:55:21;;;;;;;2.08;1.00;;;;;;;16.82;47.58;100628.53;5112193;28;20116;-64
2023/10/16 01:57:50;;;;;;;1.77;0.93;;;;;;;16.82;47.62;100636.63;5112158;28;20054;-64
2023/10/16 02:00:24;;;;;;;2.63;1.00;;;;;;;16.81;47.60;100632.22;5111990;28;20051;-64
2023/10/16 02:02:53;;;;;;;3.05;1.20;;;;;;;16.82;47.28;100636.63;5112220;28;20048;-64
2023/10/16 02:05:23;;;;;;;1.75;1.00;;;;;;;16.80;47.34;100633.19;5112082;28;20048;-65
2023/10/16 02:07:56;;;;;;;3.17;1.10;;;;;;;16.81;47.45;100634.91;5112192;28;20079;-64
2023/10/16 02:10:27;;;;;;;2.15;1.02;;;;;;;16.79;47.64;100645.81;5111762;28;20052;-64
2023/10/16 02:12:55;;;;;;;1.40;0.90;;;;;;;16.79;47.57;100639.53;5111895;28;20404;-64
2023/10/16 02:15:24;;;;;;;3.35;1.00;;;;;;;16.79;47.51;100647.63;5112075;28;20051;-64
2023/10/16 02:17:53;;;;;;;2.05;0.90;;;;;;;16.78;47.34;100660.25;5112036;28;20052;-64
2023/10/16 02:20:26;;;;;;;1.98;1.10;;;;;;;16.77;47.54;100638.81;5111994;28;20044;-64
2023/10/16 02:22:55;;;;;;;2.50;1.15;;;;;;;16.76;47.51;100635.25;5111967;28;20835;-64
2023/10/16 02:25:23;;;;;;;2.17;1.02;;;;;;;16.76;47.22;100642.50;5127765;28;20050;-65
2023/10/16 02:27:54;;;;;;;1.60;1.00;;;;;;;16.76;47.45;100653.25;5132278;28;20143;-64
2023/10/16 02:30:33;;;;;;;2.05;1.10;;;;;;;16.76;47.41;100651.44;5132306;28;20051;-64
2023/10/16 02:33:12;;;;;;;1.90;0.85;;;;;;;16.74;47.27;100637.22;5132372;28;20080;-64
2023/10/16 02:35:42;;;;;;;2.00;0.98;;;;;;;16.75;47.36;100635.38;5132098;28;20047;-64
2023/10/16 02:38:13;;;;;;;1.52;0.88;;;;;;;16.73;47.20;100629.28;5132028;28;20043;-64
2023/10/16 02:40:45;;;;;;;1.92;0.95;;;;;;;16.72;47.30;100633.81;5132327;28;20054;-64
2023/10/16 02:43:18;;;;;;;1.30;0.80;;;;;;;16.71;47.31;100642.88;5131933;28;20047;-64
2023/10/16 02:45:51;;;;;;;;;;;;;;;16.70;47.31;100651.06;5132524;28;20043;-64
2023/10/16 02:48:21;;;;;;;1.58;0.77;;;;;;;16.67;46.95;100651.25;5132255;28;19920;-64
2023/10/16 02:50:54;;;;;;;2.15;1.02;;;;;;;16.65;46.97;100642.47;5133604;27;20514;-63
2023/10/16 02:53:22;;;;;;;2.25;1.20;;;;;;;16.63;46.95;100639.03;5135764;27;20050;-64
2023/10/16 02:55:53;;;;;;;1.65;1.00;;;;;;;16.59;46.79;100647.34;5135977;27;20054;-64
2023/10/16 02:58:23;;;;;;;2.15;1.02;;;;;;;16.57;46.84;100646.59;5135802;27;20063;-64
2023/10/16 03:00:53;;;;;;;1.90;0.88;;;;;;;16.55;46.72;100648.56;5135860;27;20099;-65
2023/10/16 03:03:25;;;;;;;1.92;1.00;;;;;;;16.53;46.59;100655.91;5135778;27;20055;-64
2023/10/16 03:05:56;;;;;;;3.70;0.90;;;;;;;16.50;46.64;100649.91;5135878;27;20130;-64
2023/10/16 03:08:30;;;;;;;1.17;0.77;;;;;;;16.48;46.62;100650.03;5135703;27;20043;-64
2023/10/16 03:11:05;;;;;;;1.58;0.90;;;;;;;16.47;46.57;100640.22;5135545;27;20096;-64
2023/10/16 03:13:35;;;;;;;2.15;0.90;;;;;;;16.47;46.49;100645.63;5135283;27;20047;-64
2023/10/16 03:16:07;;;;;;;2.13;0.88;;;;;;;16.45;46.56;100641.34;5135696;27;20071;-64
2023/10/16 03:18:42;;;;;;;1.38;0.73;;;;;;;16.43;46.46;100643.31;5135347;27;20103;-64
2023/10/16 03:24:09;;;;;;;1.33;0.75;;;;;;;16.40;46.68;100655.16;5150806;27;20370;-64
2023/10/16 03:26:42;;;;;;;1.73;0.80;;;;;;;16.40;46.69;100659.66;5151026;27;20054;-63
2023/10/16 03:29:11;;;;;;;2.03;0.70;;;;;;;16.39;46.72;100652.56;5150910;27;20270;-64
2023/10/16 03:31:39;;;;;;;2.33;1.10;;;;;;;16.38;46.61;100670.56;5150738;27;20051;-63
2023/10/16 03:34:11;;;;;;;2.13;0.80;;;;;;;16.37;46.57;100671.53;5150766;27;20053;-64
2023/10/16 03:36:41;;;;;;;2.13;1.00;;;;;;;16.35;46.36;100673.50;5150321;27;20053;-64
2023/10/16 03:39:17;;;;;;;1.38;0.82;;;;;;;16.36;46.39;100671.66;5150758;27;20047;-63
2023/10/16 03:41:48;;;;;;;1.45;0.88;;;;;;;16.33;46.37;100674.59;5150577;27;20043;-64
2023/10/16 03:44:18;;;;;;;1.58;0.90;;;;;;;16.31;46.51;100670.22;5150528;27;20051;-64
2023/10/16 03:46:47;;;;;;;1.52;0.90;;;;;;;16.31;46.52;100680.13;5150430;27;20407;-63
2023/10/16 03:49:15;;;;;;;1.15;0.65;;;;;;;16.30;46.61;100678.38;5150213;27;20042;-63
2023/10/16 03:51:46;;;;;;;1.58;0.80;;;;;;;16.28;46.57;100674.94;5150533;27;20074;-64
2023/10/16 03:54:16;;;;;;;1.73;0.77;;;;;;;16.25;46.51;100667.97;5150198;27;20046;-63
2023/10/16 03:56:45;;;;;;;1.75;0.73;;;;;;;16.19;46.33;100662.19;5150377;27;20043;-64
2023/10/16 03:59:15;;;;;;;2.25;1.00;;;;;;;16.25;46.23;100673.34;5150314;27;20134;-63
2023/10/16 04:01:44;;;;;;;1.65;0.88;;;;;;;16.24;46.48;100681.56;5150107;27;20046;-63
2023/10/16 04:04:14;;;;;;;1.80;0.70;;;;;;;16.23;46.44;100680.69;5150248;27;20107;-63
2023/10/16 04:06:43;;;;;;;1.50;0.73;;;;;;;16.21;46.37;100671.00;5150161;27;20131;-63
2023/10/16 04:09:13;;;;;;;1.23;0.70;;;;;;;16.20;46.39;100671.97;5149928;27;20138;-64
2023/10/16 04:11:48;;;;;;;1.73;0.90;;;;;;;16.19;46.33;100664.88;5149889;27;20146;-64
2023/10/16 04:14:18;;;;;;;1.75;0.70;;;;;;;16.19;46.40;100667.59;5149751;27;20049;-63
2023/10/16 04:16:54;;;;;;;1.95;1.13;;;;;;;16.18;46.21;100649.72;5150090;27;20046;-63
2023/10/16 04:19:47;;;;;;;2.53;0.90;;;;;;;16.16;46.39;100666.00;5149778;27;20047;-65
2023/10/16 04:22:16;;;;;;;1.93;0.83;;;;;;;16.15;46.47;100664.28;5149526;27;20417;-64
2023/10/16 04:24:45;;;;;;;2.15;1.00;;;;;;;16.14;46.31;100664.41;5149443;27;20043;-63
2023/10/16 04:27:33;;;;;;;2.35;0.90;;;;;;;16.11;46.41;100660.09;5149758;27;20051;-64
2023/10/16 04:36:49;;;;;;;1.75;0.80;;;;;;;16.07;46.26;100671.22;5092077;28;20044;-64
2023/10/16 04:38:53;;;;;;;1.60;0.80;;;;;;;16.06;46.17;100675.75;5133967;27;20130;-64
2023/10/16 04:44:49;;;;;;;1.58;0.80;;;;;;;16.03;46.30;100684.06;5126338;27;20050;-64
2023/10/16 04:47:17;;;;;;;1.67;0.77;;;;;;;16.01;46.19;100676.09;5135391;27;20051;-64
2023/10/16 04:49:59;;;;;;;1.10;0.80;;;;;;;16.00;46.17;100685.13;5135325;27;20051;-64
2023/10/16 04:55:53;;;;;;;1.80;0.90;;;;;;;15.99;46.15;100693.31;5150140;27;20039;-64
2023/10/16 04:58:27;;;;;;;1.38;0.90;;;;;;;15.97;46.32;100684.53;5155712;27;20039;-64
2023/10/16 05:01:17;;;;;;;2.25;0.80;;;;;;;15.98;46.28;100680.84;5155799;27;20078;-64
2023/10/16 05:04:14;;;;;;;1.48;0.80;;;;;;;15.94;46.19;100679.38;5155552;27;20046;-63
2023/10/16 05:06:48;;;;;;;2.95;1.02;;;;;;;15.95;46.21;100690.03;5155613;27;20042;-64
2023/10/16 05:17:59;;;;;;;2.08;0.90;;;;;;;15.94;46.24;100699.06;5155144;27;20039;-64
2023/10/16 06:15:52;;;;;;;1.42;0.80;;;;;;;15.95;46.17;100751.03;5113006;28;20054;-63
2023/10/16 06:18:20;;;;;;;1.67;0.98;;;;;;;15.96;46.23;100759.00;5112952;28;20497;-63
2023/10/16 06:20:52;;;;;;;2.45;1.02;;;;;;;15.96;46.18;100764.38;5112874;28;20054;-63
2023/10/16 06:23:22;;;;;;;1.80;0.95;;;;;;;15.96;46.17;100764.38;5139349;27;20070;-64
2023/10/16 06:25:51;;;;;;;0.95;0.70;;;;;;;15.97;46.16;100771.47;5153974;27;20400;-63
2023/10/16 06:28:19;;;;;;;2.55;1.10;;;;;;;15.96;46.13;100768.91;5154422;27;20078;-63
2023/10/16 06:30:47;;;;;;;1.45;0.80;;;;;;;15.94;46.16;100771.69;5153915;27;20518;-63
2023/10/16 06:33:15;;;;;;;1.17;0.85;;;;;;;15.96;46.28;100775.13;5153827;27;20047;-63
2023/10/16 06:35:43;;;;;;;2.15;1.00;;;;;;;15.96;46.02;100782.34;5154094;27;20066;-63
2023/10/16 06:38:14;;;;;;;2.42;0.98;;;;;;;15.96;46.15;100780.50;5153761;27;20043;-63
2023/10/16 06:40:44;;;;;;;2.00;1.00;;;;;;;15.95;45.90;100794.09;5133992;27;20092;-63
2023/10/16 06:43:13;;;;;;;2.20;1.10;;;;;;;15.96;45.99;100796.66;5132732;27;20043;-65
2023/10/16 06:45:42;;;;;;;2.97;0.90;;;;;;;15.94;46.03;100793.22;5132929;27;20408;-65
2023/10/16 06:48:15;;;;;;;1.70;0.98;;;;;;;15.95;46.09;100803.00;5135094;27;20051;-63
2023/10/16 06:50:53;;;;;;;1.77;1.00;;;;;;;15.95;45.90;100811.09;5132294;27;20035;-62
2023/10/16 06:53:22;;;;;;;1.33;0.98;;;;;;;15.94;46.00;100813.91;5132866;27;20047;-65
2023/10/16 06:55:52;;;;;;;1.60;0.80;;;;;;;15.92;45.89;100816.69;5132936;27;20097;-64
2023/10/16 06:58:21;;;;;;;2.00;0.85;;;;;;;15.92;45.91;100822.09;5132191;27;20050;-65
2023/10/16 07:00:52;;;;;;;2.50;1.02;;;;;;;15.93;45.88;100823.81;5132721;27;20047;-65
2023/10/16 07:03:21;;;;;;;1.67;0.93;;;;;;;15.92;45.93;100824.78;5132457;27;20126;-63
2023/10/16 07:05:50;;;;;;;1.35;0.88;;;;;;;15.91;45.77;100825.72;5132618;27;20074;-62
2023/10/16 07:08:19;;;;;;;1.98;1.05;;;;;;;15.93;45.95;100823.81;5132386;27;20043;-63
2023/10/16 07:10:52;;;;;;;2.05;1.00;;;;;;;15.93;45.95;100825.63;5132062;27;20268;-63
2023/10/16 07:13:29;;;;;;;2.00;1.00;;;;;;;15.93;45.94;100828.31;5132330;27;20043;-62
2023/10/16 07:16:00;;;;;;;2.05;1.00;;;;;;;15.93;45.93;100826.50;5132185;27;20059;-64
2023/10/16 07:18:33;;;;;;;1.60;0.88;;;;;;;15.92;45.92;100827.47;5132655;27;20043;-64
2023/10/16 07:21:08;;;;;;;1.25;0.90;;;;;;;15.91;46.00;100832.94;5132533;28;20131;-63
2023/10/16 07:23:38;;;;;;;2.55;0.90;;;;;;;15.91;45.74;100833.78;5132398;27;20077;-63
2023/10/16 07:26:09;;;;;;;2.58;1.00;;;;;;;15.91;45.54;100835.63;5132428;28;20052;-63
2023/10/16 07:28:39;;;;;;;1.98;0.90;;;;;;;15.91;45.90;100841.00;5132146;28;20051;-63
2023/10/16 07:31:10;;;;;;;2.08;0.90;;;;;;;15.91;46.03;100839.16;5132538;28;20051;-63
2023/10/16 07:33:40;;;;;;;2.08;1.08;;;;;;;15.88;45.84;100836.72;5132625;27;20413;-63
2023/10/16 07:36:12;;;;;;;2.13;1.08;;;;;;;15.89;45.73;100830.34;5132317;27;20047;-64
2023/10/16 07:38:41;;;;;;;1.52;0.80;;;;;;;15.89;45.81;100835.75;5132415;28;20046;-64
2023/10/16 07:41:12;;;;;;;1.13;0.88;;;;;;;15.88;45.85;100842.09;5132516;27;20072;-63
2023/10/16 07:43:45;;;;;;;2.13;1.10;;;;;;;15.90;45.88;100848.22;5132799;28;20046;-64
2023/10/16 07:46:27;;;;;;;2.72;1.00;;;;;;;15.89;45.68;100833.03;5132478;28;20130;-64
2023/10/16 07:49:01;;;;;;;2.17;1.13;;;;;;;15.89;45.86;100834.88;5131814;27;20456;-64
2023/10/16 07:51:30;;;;;;;2.38;1.00;;;;;;;15.90;45.82;100834.75;5132140;27;20043;-64
2023/10/16 07:54:00;;;;;;;1.67;0.90;;;;;;;15.90;45.81;100841.97;5132383;27;20086;-62
2023/10/16 07:56:30;;;;;;;1.63;1.10;;;;;;;15.90;45.74;100850.91;5132061;27;20514;-63
2023/10/16 07:59:07;;;;;;;3.03;1.08;;;;;;;15.90;45.71;100853.59;5132192;27;20051;-63
2023/10/16 08:01:41;;;;;;;2.35;0.90;;;;;;;15.89;45.64;100849.19;5131863;27;20488;-64
2023/10/16 08:04:27;;;;;;;1.65;1.00;;;;;;;15.90;45.74;100856.28;5131730;27;20403;-63
2023/10/16 08:07:04;;;;;;;2.10;0.82;;;;;;;15.89;45.67;100854.56;5132089;27;20450;-64
2023/10/16 08:09:57;;;;;;;2.08;0.90;;;;;;;15.89;45.63;100849.19;5133368;27;20514;-63
2023/10/16 08:15:14;;;;;;;2.08;1.08;;;;;;;15.88;45.59;100852.84;5133915;27;20467;-63
2023/10/16 08:17:45;;;;;;;2.10;1.00;;;;;;;15.89;45.63;100859.94;5135520;27;20125;-62
2023/10/16 08:20:17;;;;;;;1.83;1.17;;;;;;;15.89;45.79;100862.63;5135626;27;20130;-64
2023/10/16 08:22:47;;;;;;;1.98;0.93;;;;;;;15.90;45.60;100864.34;5135177;27;20223;-63
2023/10/16 08:28:18;;;;;;;2.78;1.02;;;;;;;15.89;45.61;100868.03;5135488;27;20043;-64
2023/10/16 08:30:52;;;;;;;2.00;1.00;;;;;;;15.89;45.56;100865.31;5135309;27;20134;-64
2023/10/16 08:33:30;;;;;;;1.88;1.00;;;;;;;15.90;45.43;100872.44;5135062;27;20051;-62
2023/10/16 08:35:59;;;;;;;1.10;0.80;;;;;;;15.90;45.46;100867.03;5135399;27;20126;-63
2023/10/16 08:38:32;;;;;;;1.85;0.88;;;;;;;15.91;45.39;100871.44;5135323;27;20504;-63
2023/10/16 08:41:07;;;;;;;2.08;1.10;;;;;;;15.92;45.41;100864.25;5135381;27;20047;-63
2023/10/16 08:43:53;;;;;;;1.92;1.00;;;;;;;15.92;45.42;100862.44;5135004;27;20484;-63
2023/10/16 08:46:31;;;;;;;2.45;1.00;;;;;;;15.93;45.47;100866.84;5134987;27;20051;-63
2023/10/16 08:49:02;;;;;;;2.30;1.00;;;;;;;15.94;45.67;100863.19;5135177;27;20053;-63
2023/10/16 08:51:31;;;;;;;2.35;1.13;;;;;;;15.96;45.49;100865.75;5135301;27;20078;-63
2023/10/16 08:54:04;;;;;;;1.27;0.85;;;;;;;15.98;45.60;100864.66;5135226;27;20043;-64
2023/10/16 08:56:34;;;;;;;1.70;0.80;;;;;;;16.00;45.40;100862.72;5135137;27;20127;-63
2023/10/16 08:59:04;;;;;;;2.45;1.10;;;;;;;16.01;45.50;100859.03;5135299;27;20085;-63
2023/10/16 09:01:35;;;;;;;1.65;0.75;;;;;;;16.03;45.54;100862.50;5135378;27;20134;-63
2023/10/16 09:04:06;;;;;;;1.02;0.80;;;;;;;16.05;45.64;100861.53;5135110;27;20051;-63
2023/10/16 09:06:37;;;;;;;1.80;0.90;;;;;;;16.07;45.41;100856.88;5134791;27;20134;-63
2023/10/16 09:09:13;;;;;;;1.08;0.80;;;;;;;16.11;45.44;100874.50;5134824;27;20050;-63
2023/10/16 09:11:45;;;;;;;1.60;0.82;;;;;;;16.12;45.51;100865.50;5135025;27;20046;-64
2023/10/16 09:14:17;;;;;;;3.20;1.00;;;;;;;16.12;45.57;100866.34;5134708;27;20057;-64
2023/10/16 09:16:48;;;;;;;2.05;1.05;;;;;;;16.16;45.48;100877.75;5134737;27;20047;-62
2023/10/16 09:19:18;;;;;;;2.35;1.00;;;;;;;16.19;45.32;100874.81;5134636;27;20514;-63
2023/10/16 09:21:52;;;;;;;2.70;1.00;;;;;;;16.24;45.44;100880.75;5134107;27;20043;-64
2023/10/16 09:24:21;;;;;;;1.73;0.93;;;;;;;16.26;45.29;100881.47;5134865;27;20403;-64
2023/10/16 09:26:54;;;;;;;1.98;1.13;;;;;;;16.30;45.37;100874.88;5134682;27;20100;-64
2023/10/16 09:29:25;;;;;;;1.90;1.10;;;;;;;16.34;45.04;100876.38;5134817;27;20043;-63
2023/10/16 09:31:57;;;;;;;1.30;0.60;;;;;;;16.38;45.02;100872.47;5134274;27;20047;-63
2023/10/16 09:34:30;;;;;;;1.58;0.90;;;;;;;16.42;44.89;100874.00;5134745;27;20043;-63
2023/10/16 09:37:20;;;;;;;2.28;0.85;;;;;;;16.47;44.82;100861.03;5134413;27;20055;-64
2023/10/16 09:39:49;;;;;;;2.20;0.93;;;;;;;16.52;44.36;100858.84;5134350;27;20053;-64
2023/10/16 09:42:24;;;;;;;1.45;0.80;;;;;;;16.58;44.57;100858.38;5134300;27;20409;-64
2023/10/16 09:45:06;;;;;;;2.40;0.80;;;;;;;16.66;44.53;100857.81;5134468;27;20043;-64
2023/10/16 09:47:48;;;;;;;1.85;0.98;;;;;;;16.76;44.37;100861.53;5134200;27;20047;-64
2023/10/16 09:50:18;;;;;;;2.40;0.90;;;;;;;16.87;44.06;100856.19;5134006;27;20051;-63
2023/10/16 09:52:48;;;;;;;1.38;0.88;;;;;;;16.96;43.96;100851.94;5134018;27;20476;-63
2023/10/16 09:55:18;;;;;;;2.08;0.90;;;;;;;17.05;43.72;100843.13;5134003;27;20051;-63
2023/10/16 09:57:51;;;;;;;2.53;0.80;;;;;;;17.14;43.47;100841.56;5134262;27;20092;-64
2023/10/16 10:00:28;;;;;;;0.90;0.60;;;;;;;17.23;43.34;100834.59;5134062;27;20047;-63
2023/10/16 10:03:05;;;;;;;3.22;1.20;;;;;;;17.32;43.48;100839.25;5133848;27;20377;-64
2023/10/16 10:05:43;;;;;;;1.17;0.70;;;;;;;17.41;43.27;100841.22;5133720;27;20051;-63
2023/10/16 10:08:18;;;;;;;1.85;0.90;;;;;;;17.47;43.20;100835.34;5133704;27;20552;-63
2023/10/16 10:11:15;;;;;;;1.80;0.80;;;;;;;17.55;43.19;100837.41;5133538;27;20468;-64
2023/10/16 10:14:20;;;;;;;1.95;1.00;;;;;;;17.62;42.98;100828.72;5133479;27;20058;-63
2023/10/16 10:16:56;;;;;;;1.73;0.88;;;;;;;17.68;43.01;100821.97;5133572;27;20043;-63
2023/10/16 10:19:32;;;;;;;1.85;0.85;;;;;;;17.75;42.77;100817.81;5133663;27;20412;-63
2023/10/16 10:22:06;;;;;;;1.38;0.88;;;;;;;17.81;42.74;100821.88;5133384;27;20134;-63
2023/10/16 10:24:37;;;;;;;1.67;0.90;;;;;;;17.91;42.69;100830.94;5133509;27;20047;-64
2023/10/16 10:27:11;;;;;;;2.58;1.08;;;;;;;17.99;42.26;100810.41;5133471;27;20159;-64
2023/10/16 10:29:43;;;;;;;1.60;0.90;;;;;;;18.10;42.40;100822.19;5133475;27;20115;-64
2023/10/16 10:32:13;;;;;;;2.75;0.90;;;;;;;18.20;42.19;100806.94;5132726;27;20047;-64
2023/10/16 10:34:43;;;;;;;2.03;0.82;;;;;;;18.26;41.98;100806.44;5132963;27;20047;-64
2023/10/16 10:37:48;;;;;;;1.20;0.88;;;;;;;18.36;42.00;100806.50;5133057;27;20491;-63
2023/10/16 10:40:21;;;;;;;2.13;0.85;;;;;;;18.43;41.73;100796.88;5132064;27;20073;-63
2023/10/16 10:42:55;;;;;;;2.05;1.10;;;;;;;18.49;41.54;100802.63;5132937;27;20567;-63
2023/10/16 10:45:33;;;;;;;2.17;0.93;;;;;;;18.53;41.79;100797.84;5132779;27;20472;-63
2023/10/16 10:48:09;;;;;;;2.40;0.90;;;;;;;18.61;41.40;100795.31;5133139;27;20046;-63
2023/10/16 10:50:40;;;;;;;2.22;0.70;;;;;;;18.66;41.36;100793.13;5132840;27;20562;-64
2023/10/16 10:53:14;;;;;;;1.98;0.88;;;;;;;18.73;41.29;100780.81;5132901;27;20177;-63
2023/10/16 10:55:58;;;;;;;1.25;0.80;;;;;;;18.83;41.48;100786.28;5132879;27;20047;-63
2023/10/16 10:58:31;;;;;;;1.85;0.93;;;;;;;18.90;41.01;100782.06;5133086;27;20078;-63
2023/10/16 11:01:18;;;;;;;1.52;0.70;;;;;;;18.98;41.00;100773.28;5132961;27;20168;-63
2023/10/16 11:03:47;;;;;;;1.48;0.80;;;;;;;19.05;40.99;100771.75;5132796;27;20393;-63
2023/10/16 11:06:20;;;;;;;1.48;0.80;;;;;;;19.09;41.01;100768.63;5132405;27;20039;-64
2023/10/16 11:08:55;;;;;;;1.33;0.70;;;;;;;19.17;40.95;100765.28;5132964;27;20047;-64
2023/10/16 11:11:27;;;;;;;2.15;0.98;;;;;;;19.23;40.81;100759.34;5132665;27;20118;-64
2023/10/16 11:13:55;;;;;;;2.15;0.90;;;;;;;19.28;40.92;100762.47;5132527;27;20043;-64
2023/10/16 11:16:24;;;;;;;1.77;0.80;;;;;;;19.34;40.59;100755.69;5132257;27;20059;-64
2023/10/16 11:19:05;;;;;;;1.38;0.70;;;;;;;19.41;40.64;100760.41;5132498;27;20047;-65
2023/10/16 11:21:36;;;;;;;1.05;0.68;;;;;;;19.49;40.73;100753.44;5132475;27;20480;-64
2023/10/16 11:24:06;;;;;;;1.80;0.93;;;;;;;19.56;40.64;100741.09;5132745;28;20050;-64
2023/10/16 11:26:34;;;;;;;1.15;0.70;;;;;;;19.63;40.34;100745.84;5132376;27;20512;-64
2023/10/16 11:29:04;;;;;;;2.97;0.80;;;;;;;19.68;40.35;100743.53;5132577;27;20047;-64
2023/10/16 11:31:40;;;;;;;2.70;1.00;;;;;;;19.72;40.47;100750.41;5132765;27;20052;-65
2023/10/16 11:34:13;;;;;;;0.90;0.60;;;;;;;19.77;40.44;100746.41;5132375;28;20039;-64
2023/10/16 11:36:50;;;;;;;1.40;0.80;;;;;;;19.82;40.40;100736.91;5132597;27;20436;-65
2023/10/16 11:39:22;;;;;;;2.88;0.73;;;;;;;19.90;40.26;100738.91;5132323;27;20062;-64
2023/10/16 11:41:51;;;;;;;2.47;0.80;;;;;;;19.97;40.71;100742.75;5132440;27;20093;-64
2023/10/16 11:44:26;;;;;;;2.03;0.90;;;;;;;20.04;40.29;100740.34;5133889;27;20125;-64
2023/10/16 11:47:00;;;;;;;2.42;0.90;;;;;;;20.10;40.63;100727.09;5136889;27;20057;-65
2023/10/16 11:49:35;;;;;;;1.92;0.70;;;;;;;20.18;40.51;100731.81;5136477;27;20043;-65
2023/10/16 11:52:21;;;;;;;1.70;0.93;;;;;;;20.25;40.29;100741.06;5136274;27;20058;-64
2023/10/16 11:54:53;;;;;;;1.45;0.70;;;;;;;20.34;40.57;100723.94;5136611;27;20134;-66
2023/10/16 11:57:22;;;;;;;2.05;0.90;;;;;;;20.41;40.43;100735.94;5136268;27;20051;-66
2023/10/16 11:59:51;;;;;;;2.60;0.77;;;;;;;20.47;40.10;100721.00;5136445;27;20047;-65
2023/10/16 12:02:21;;;;;;;1.38;0.80;;;;;;;20.54;40.26;100725.66;5135903;27;20043;-66
2023/10/16 12:04:50;;;;;;;2.25;0.85;;;;;;;20.62;40.10;100724.09;5136136;27;20449;-65
2023/10/16 12:07:21;;;;;;;2.20;1.00;;;;;;;20.68;40.09;100726.22;5136244;27;20090;-65
2023/10/16 12:09:52;;;;;;;1.20;0.70;;;;;;;20.74;40.26;100718.34;5136176;27;20043;-65
2023/10/16 12:12:21;;;;;;;1.17;0.70;;;;;;;20.81;39.91;100726.75;5136082;27;20043;-65
2023/10/16 12:14:51;;;;;;;2.08;0.85;;;;;;;20.85;40.15;100711.94;5135881;27;20130;-67
2023/10/16 12:17:20;;;;;;;2.00;0.95;;;;;;;20.93;40.06;100713.88;5135722;27;20131;-65
2023/10/16 12:19:51;;;;;;;2.00;0.82;;;;;;;20.97;39.92;100705.31;5136030;27;20047;-66
2023/10/16 12:22:22;;;;;;;1.40;0.70;;;;;;;21.04;39.79;100711.00;5135815;27;20095;-65
2023/10/16 12:24:53;;;;;;;2.17;0.80;;;;;;;21.08;39.57;100707.84;5135790;27;20616;-65
2023/10/16 12:27:21;;;;;;;1.25;0.77;;;;;;;21.12;39.95;100705.66;5135848;27;20096;-65
2023/10/16 12:29:49;;;;;;;1.48;0.77;;;;;;;21.17;40.10;100710.66;5134194;27;20416;-66
2023/10/16 12:32:18;;;;;;;2.55;0.90;;;;;;;21.22;39.61;100713.75;5135629;27;20476;-65
2023/10/16 12:34:49;;;;;;;1.08;0.60;;;;;;;21.27;39.58;100711.50;5135485;27;20070;-65
2023/10/16 12:37:22;;;;;;;2.42;0.75;;;;;;;21.31;39.81;100710.19;5135562;27;20039;-65
2023/10/16 12:39:52;;;;;;;1.08;0.70;;;;;;;21.34;39.88;100715.31;5135820;27;20479;-65
2023/10/16 12:42:21;;;;;;;1.95;0.90;;;;;;;21.37;39.48;100707.72;5135342;27;20069;-65
2023/10/16 12:44:50;;;;;;;1.23;0.80;;;;;;;21.40;39.73;100709.28;5135511;27;20047;-65
2023/10/16 12:47:18;;;;;;;1.38;0.80;;;;;;;21.45;40.07;100709.69;5135263;27;20416;-65
2023/10/16 12:50:08;;;;;;;1.83;0.82;;;;;;;21.48;39.78;100712.09;5135037;27;20047;-66
2023/10/16 12:52:36;;;;;;;1.73;0.70;;;;;;;21.49;39.99;100711.09;5135056;27;20043;-66
2023/10/16 12:55:09;;;;;;;1.33;0.65;;;;;;;21.53;40.20;100712.50;5134937;27;20053;-66
2023/10/16 12:57:37;;;;;;;;;;;;;;;21.56;39.79;100711.34;5135803;27;20103;-66
2023/10/16 13:00:15;;;;;;;1.77;0.80;;;;;;;21.58;39.98;100720.19;5135121;27;19941;-66
2023/10/16 13:02:45;;;;;;;1.17;0.80;;;;;;;21.58;39.94;100718.31;5135040;27;20457;-66
2023/10/16 13:05:14;;;;;;;1.45;0.68;;;;;;;21.61;40.02;100709.00;5135021;27;20126;-66
2023/10/16 13:07:43;;;;;;;1.60;0.70;;;;;;;21.61;40.13;100707.16;5135175;27;20108;-66
2023/10/16 13:10:21;;;;;;;1.13;0.70;;;;;;;21.64;40.18;100706.00;5135059;27;20074;-66
2023/10/16 13:12:49;;;;;;;1.30;0.73;;;;;;;21.65;40.35;100700.44;5134900;27;20054;-66
2023/10/16 13:15:24;;;;;;;1.88;0.90;;;;;;;21.67;40.41;100692.97;5134800;27;20049;-66
2023/10/16 13:17:53;;;;;;;1.13;0.57;;;;;;;21.68;40.63;100694.69;5134512;27;20039;-66